Time;durP1;ratioP1;P1;durP2;ratioP2;P2;SDS_P1;SDS_P2;PMS_P1;PMS_P2;Temp;Humidity;BMP_temperature;BMP_pressure;BME280_temperature;BME280_humidity;BME280_pressure;Samples;Min_cycle;Max_cycle;Signal;HPM_P1;HPM_P2
2021/12/07 00:01:34;;;;;;;6.40;5.13;;;;;;;3.75;81.08;99097.81;5070918;28;20048;-61
2021/12/07 00:04:02;;;;;;;5.73;4.87;;;;;;;3.88;81.75;99099.78;5071116;28;20096;-59
2021/12/07 00:06:30;;;;;;;5.82;4.40;;;;;;;3.98;81.31;99099.59;5064282;28;20049;-61
2021/12/07 00:08:59;;;;;;;4.65;3.53;;;;;;;4.02;81.23;99103.38;5056245;28;20170;-60
2021/12/07 00:11:29;;;;;;;5.60;3.80;;;;;;;4.16;80.39;99099.78;5058510;28;20064;-61
2021/12/07 00:13:58;;;;;;;5.07;3.65;;;;;;;4.23;80.18;99101.03;5058646;28;20048;-60
2021/12/07 00:16:27;;;;;;;5.25;4.00;;;;;;;4.24;80.18;99101.84;5058949;28;20057;-60
2021/12/07 00:18:54;;;;;;;5.68;4.18;;;;;;;4.37;80.08;99090.00;5057410;28;20500;-61
2021/12/07 00:21:22;;;;;;;5.82;4.78;;;;;;;4.45;80.01;99097.56;5058329;28;20064;-61
2021/12/07 00:23:50;;;;;;;5.15;4.47;;;;;;;4.51;80.17;99100.19;5056206;28;20064;-56
2021/12/07 00:26:19;;;;;;;3.65;3.10;;;;;;;4.45;78.95;99094.81;5072292;28;20048;-57
2021/12/07 00:28:49;;;;;;;3.38;2.58;;;;;;;4.47;78.24;99100.81;5063639;28;20049;-57
2021/12/07 00:31:25;;;;;;;3.70;2.90;;;;;;;4.45;78.24;99092.06;5057247;28;20053;-58
2021/12/07 00:34:06;;;;;;;2.30;1.70;;;;;;;4.41;77.09;99095.69;5062744;28;20131;-60
2021/12/07 00:36:33;;;;;;;2.50;1.73;;;;;;;4.48;76.38;99091.41;5067910;28;20053;-58
2021/12/07 00:39:01;;;;;;;1.90;1.30;;;;;;;4.44;75.07;99084.88;5064866;28;20416;-58
2021/12/07 00:41:32;;;;;;;1.77;1.20;;;;;;;4.54;74.81;99094.09;5070298;28;20052;-59
2021/12/07 00:44:01;;;;;;;1.88;1.40;;;;;;;4.37;74.71;99090.00;5062342;28;20048;-59
2021/12/07 00:46:29;;;;;;;1.80;1.10;;;;;;;4.26;74.54;99088.56;5053164;28;20056;-58
2021/12/07 00:48:57;;;;;;;3.38;1.20;;;;;;;4.24;74.25;99107.34;5060889;28;20056;-59
2021/12/07 00:51:24;;;;;;;1.88;1.30;;;;;;;4.40;74.51;99086.63;5065377;28;20052;-59
2021/12/07 00:53:52;;;;;;;1.83;1.30;;;;;;;4.50;74.07;99087.56;5067443;28;20052;-59
2021/12/07 00:56:19;;;;;;;2.22;1.10;;;;;;;4.45;74.15;99093.97;5055690;28;20068;-60
2021/12/07 00:58:49;;;;;;;2.58;1.63;;;;;;;4.39;73.72;99097.94;5055111;28;20048;-60
2021/12/07 01:01:17;;;;;;;1.98;1.40;;;;;;;4.54;73.69;99099.59;5058688;28;20075;-59
2021/12/07 01:03:48;;;;;;;1.90;1.27;;;;;;;4.54;73.11;99105.13;5058403;28;20055;-60
2021/12/07 01:06:23;;;;;;;1.60;1.10;;;;;;;4.34;73.71;99106.34;5069858;28;20075;-59
2021/12/07 01:09:06;;;;;;;1.30;1.00;;;;;;;4.58;73.48;99106.13;5063130;28;20521;-59
2021/12/07 01:25:50;;;;;;;2.00;1.25;;;;;;;4.06;76.15;99139.41;5066340;28;20122;-60
2021/12/07 01:28:24;;;;;;;1.70;1.30;;;;;;;4.27;76.10;99142.59;5061865;28;20049;-60
2021/12/07 01:30:58;;;;;;;1.80;1.20;;;;;;;4.43;76.41;99149.44;5072561;28;20065;-59
2021/12/07 01:36:48;;;;;;;2.53;1.50;;;;;;;4.55;75.28;99150.84;5092549;27;21214;-60
2021/12/07 01:45:12;;;;;;;3.25;1.67;;;;;;;4.56;75.22;99166.28;5092810;28;20052;-60
2021/12/07 01:47:50;;;;;;;2.15;1.67;;;;;;;4.54;74.55;99176.81;5088550;28;20052;-60
2021/12/07 01:50:31;;;;;;;2.60;1.20;;;;;;;4.46;75.03;99170.88;5089096;28;20049;-59
2021/12/07 01:53:17;;;;;;;2.10;1.50;;;;;;;4.43;74.85;99181.69;5087610;28;20045;-60
2021/12/07 02:01:14;;;;;;;1.95;1.35;;;;;;;4.43;75.05;99187.19;5047631;28;20155;-55
2021/12/07 02:03:41;;;;;;;2.00;1.38;;;;;;;4.50;75.38;99197.84;5087820;28;20055;-57
2021/12/07 02:06:12;;;;;;;1.90;1.45;;;;;;;4.66;75.40;99188.13;5089029;28;20056;-57
2021/12/07 02:08:41;;;;;;;2.60;1.70;;;;;;;4.74;75.12;99187.41;5089090;28;20052;-56
2021/12/07 02:11:08;;;;;;;2.30;1.70;;;;;;;4.64;74.77;99198.63;5086401;28;20051;-60
2021/12/07 02:16:21;;;;;;;2.15;1.70;;;;;;;4.39;75.23;99209.06;5081010;28;20052;-60
2021/12/07 02:18:48;;;;;;;2.23;1.87;;;;;;;4.38;75.80;99204.66;5087381;28;20055;-60
2021/12/07 02:21:20;;;;;;;4.50;2.65;;;;;;;4.54;75.17;99215.41;5086015;28;20057;-60
2021/12/07 02:23:47;;;;;;;3.20;2.20;;;;;;;4.44;75.45;99228.25;5086576;28;20515;-60
2021/12/07 02:26:15;;;;;;;2.97;2.15;;;;;;;4.33;74.99;99229.56;5086652;28;20492;-61
2021/12/07 02:28:43;;;;;;;3.85;2.55;;;;;;;4.43;74.98;99226.63;5088146;28;20044;-60
2021/12/07 02:31:11;;;;;;;2.97;2.60;;;;;;;4.50;74.82;99241.97;5087048;28;20052;-60
2021/12/07 02:33:39;;;;;;;3.03;2.70;;;;;;;4.28;74.66;99240.66;5088027;28;20055;-59
2021/12/07 02:36:09;;;;;;;3.60;2.80;;;;;;;4.36;74.81;99248.25;5084827;28;20052;-59
2021/12/07 02:38:38;;;;;;;3.10;2.60;;;;;;;4.42;74.82;99258.06;5085088;28;20055;-60
2021/12/07 02:41:07;;;;;;;3.05;2.65;;;;;;;4.42;74.55;99255.31;5086720;28;20078;-58
2021/12/07 02:43:35;;;;;;;3.30;2.90;;;;;;;4.18;74.89;99263.72;5085110;28;20505;-60
2021/12/07 02:46:02;;;;;;;3.95;3.33;;;;;;;4.12;75.62;99267.69;5069728;28;20060;-57
2021/12/07 02:48:30;;;;;;;3.88;2.95;;;;;;;3.91;75.82;99269.97;5073034;28;20052;-59
2021/12/07 02:50:57;;;;;;;3.72;3.15;;;;;;;4.20;75.51;99275.28;5071961;28;20053;-60
2021/12/07 02:53:28;;;;;;;3.88;2.95;;;;;;;4.00;75.05;99284.69;5071149;28;20048;-60
2021/12/07 02:55:59;;;;;;;3.65;3.00;;;;;;;4.07;74.93;99282.38;5073153;28;20044;-58
2021/12/07 02:58:27;;;;;;;4.47;3.20;;;;;;;3.89;75.61;99283.22;5071918;28;20064;-59
2021/12/07 03:01:05;;;;;;;4.65;3.83;;;;;;;4.01;74.89;99299.28;5073672;28;20071;-60
2021/12/07 03:03:38;;;;;;;4.05;3.08;;;;;;;3.92;75.24;99303.84;5073896;28;20398;-59
2021/12/07 03:06:14;;;;;;;4.63;3.53;;;;;;;3.84;75.17;99295.13;5072608;28;20047;-59
2021/12/07 03:09:14;;;;;;;4.45;3.80;;;;;;;3.88;74.32;99306.34;5067263;28;20049;-59
2021/12/07 03:28:13;;;;;;;5.40;4.18;;;;;;;4.04;74.34;99337.25;5073610;28;20059;-60
2021/12/07 03:30:40;;;;;;;5.25;4.65;;;;;;;3.87;75.32;99351.56;5072464;28;20040;-61
2021/12/07 03:33:09;;;;;;;5.32;4.47;;;;;;;3.96;74.73;99344.25;5071181;28;20053;-61
2021/12/07 03:35:36;;;;;;;5.63;5.05;;;;;;;3.94;74.91;99360.25;5072872;28;20048;-61
2021/12/07 03:38:05;;;;;;;5.10;4.22;;;;;;;4.02;74.50;99358.78;5069032;28;20489;-61
2021/12/07 03:40:34;;;;;;;6.45;5.60;;;;;;;4.08;74.43;99354.84;5074108;28;20048;-61
2021/12/07 03:43:04;;;;;;;5.82;5.22;;;;;;;4.11;74.58;99356.97;5073207;28;20606;-61
2021/12/07 03:45:34;;;;;;;6.78;5.65;;;;;;;4.03;74.36;99361.25;5070181;28;20052;-61
2021/12/07 03:48:03;;;;;;;7.22;6.53;;;;;;;4.10;74.44;99365.56;5072350;28;20052;-61
2021/12/07 03:50:31;;;;;;;7.47;5.50;;;;;;;4.14;74.44;99377.63;5072332;28;20049;-59
2021/12/07 03:52:58;;;;;;;8.13;7.32;;;;;;;4.11;74.80;99375.47;5072136;28;20052;-61
2021/12/07 03:55:25;;;;;;;7.78;6.03;;;;;;;4.13;75.28;99381.50;5071729;28;20049;-60
2021/12/07 03:57:53;;;;;;;7.60;5.97;;;;;;;4.29;74.93;99391.16;5070934;28;20056;-61
2021/12/07 04:00:23;;;;;;;9.30;7.97;;;;;;;4.36;75.16;99388.03;5072670;28;20063;-60
2021/12/07 04:02:53;;;;;;;10.50;8.95;;;;;;;4.44;74.58;99390.91;5070344;28;20507;-61
2021/12/07 04:05:23;;;;;;;13.45;10.38;;;;;;;4.53;74.56;99396.56;5072021;28;20405;-61
2021/12/07 04:07:51;;;;;;;13.15;10.80;;;;;;;4.53;74.62;99393.81;5067959;28;20516;-60
2021/12/07 04:10:22;;;;;;;17.42;13.35;;;;;;;4.62;74.18;99404.97;5069205;28;20048;-59
2021/12/07 04:12:52;;;;;;;17.42;14.27;;;;;;;4.67;74.51;99408.47;5072067;28;20516;-60
2021/12/07 04:15:21;;;;;;;20.77;14.38;;;;;;;4.60;74.84;99407.22;5072233;28;20056;-61
2021/12/07 04:17:49;;;;;;;18.27;14.30;;;;;;;4.53;75.31;99409.53;5073129;28;20049;-61
2021/12/07 04:20:19;;;;;;;21.88;16.73;;;;;;;4.52;75.41;99405.16;5072369;28;20071;-60
2021/12/07 04:22:46;;;;;;;;;;;;;;;4.69;75.28;99416.44;5072167;28;20052;-56
2021/12/07 04:25:16;;;;;;;17.80;13.15;;;;;;;4.70;74.50;99418.06;5073068;28;20392;-57
2021/12/07 04:27:44;;;;;;;19.55;15.13;;;;;;;4.70;74.57;99415.31;5072888;28;20484;-56
2021/12/07 04:30:15;;;;;;;15.88;13.50;;;;;;;4.75;74.54;99420.75;5072474;28;20048;-60
2021/12/07 04:32:43;;;;;;;20.50;14.70;;;;;;;4.54;75.64;99417.53;5073035;28;20481;-60
2021/12/07 04:35:13;;;;;;;24.08;16.85;;;;;;;4.67;75.46;99418.69;5072118;28;20048;-57
2021/12/07 04:37:41;;;;;;;17.38;13.32;;;;;;;4.79;75.32;99429.25;5070106;28;20060;-58
2021/12/07 04:40:13;;;;;;;22.67;16.20;;;;;;;4.89;75.20;99431.81;5073057;28;20049;-60
2021/12/07 04:42:41;;;;;;;25.10;18.80;;;;;;;5.00;75.13;99432.50;5072848;28;20048;-59
2021/12/07 04:45:15;;;;;;;24.40;17.05;;;;;;;4.97;74.99;99433.88;5056817;28;20059;-60
2021/12/07 04:47:53;;;;;;;21.38;16.83;;;;;;;5.08;74.81;99432.59;5052733;28;20048;-61
2021/12/07 04:50:38;;;;;;;25.70;18.63;;;;;;;5.05;74.90;99435.97;5054577;28;20064;-61
2021/12/07 04:58:38;;;;;;;25.10;17.83;;;;;;;5.08;75.13;99432.59;5077899;28;20059;-59
2021/12/07 05:01:11;;;;;;;27.42;19.45;;;;;;;4.96;75.91;99436.97;5072683;28;20405;-59
2021/12/07 05:03:39;;;;;;;26.40;19.67;;;;;;;5.16;75.37;99442.13;5072692;28;20059;-61
2021/12/07 05:06:09;;;;;;;26.08;18.05;;;;;;;5.22;75.32;99454.69;5071771;28;20059;-61
2021/12/07 05:08:42;;;;;;;25.45;17.50;;;;;;;4.99;76.05;99453.72;5066013;28;20409;-60
2021/12/07 05:11:33;;;;;;;22.50;16.70;;;;;;;5.17;76.13;99456.75;5072718;28;20075;-61
2021/12/07 05:14:15;;;;;;;20.80;14.95;;;;;;;5.21;75.81;99461.34;5072009;28;20409;-60
2021/12/07 05:16:55;;;;;;;23.08;16.02;;;;;;;5.20;76.13;99459.72;5066325;28;20044;-60
2021/12/07 05:25:22;;;;;;;25.30;17.88;;;;;;;5.34;76.26;99467.22;5072103;28;20389;-62
2021/12/07 05:38:49;;;;;;;26.95;17.83;;;;;;;5.47;76.61;99500.34;5073245;28;20420;-61
2021/12/07 05:41:18;;;;;;;27.10;16.38;;;;;;;5.57;76.90;99495.78;5068954;28;20056;-62
2021/12/07 05:43:50;;;;;;;26.23;17.48;;;;;;;5.59;76.74;99494.34;5065663;28;20060;-59
2021/12/07 05:46:18;;;;;;;21.80;16.67;;;;;;;5.48;77.68;99509.47;5053390;28;20482;-60
2021/12/07 05:48:45;;;;;;;26.27;16.45;;;;;;;5.55;77.49;99509.09;5070933;28;20052;-58
2021/12/07 05:51:12;;;;;;;30.00;17.58;;;;;;;5.55;77.46;99515.41;5071788;28;20060;-58
2021/12/07 05:53:40;;;;;;;27.80;17.00;;;;;;;5.64;77.35;99513.56;5068365;28;20056;-59
2021/12/07 05:56:08;;;;;;;26.35;17.35;;;;;;;5.79;77.31;99511.66;5069584;28;20049;-59
2021/12/07 05:58:36;;;;;;;25.92;17.52;;;;;;;5.87;77.02;99510.94;5069426;28;20496;-58
2021/12/07 06:01:04;;;;;;;27.40;17.50;;;;;;;5.88;76.36;99510.63;5071162;28;20075;-60
2021/12/07 06:03:32;;;;;;;28.45;16.92;;;;;;;5.92;76.52;99524.63;5070384;28;20044;-59
2021/12/07 06:06:03;;;;;;;27.17;16.42;;;;;;;5.89;76.82;99537.13;5068236;28;20055;-58
2021/12/07 06:08:31;;;;;;;29.08;17.70;;;;;;;5.89;76.88;99539.09;5069169;28;20516;-62
2021/12/07 06:10:59;;;;;;;29.20;17.50;;;;;;;5.82;76.78;99547.78;5068361;28;20044;-60
2021/12/07 06:13:26;;;;;;;23.80;15.63;;;;;;;5.86;76.24;99548.00;5067895;28;20063;-60
2021/12/07 06:15:55;;;;;;;22.30;13.95;;;;;;;5.85;76.12;99549.13;5070401;28;20115;-59
2021/12/07 06:18:22;;;;;;;28.38;16.63;;;;;;;5.87;75.78;99560.69;5069958;28;20060;-60
2021/12/07 06:20:50;;;;;;;25.13;14.60;;;;;;;5.91;76.11;99570.00;5069993;28;20048;-56
2021/12/07 06:23:18;;;;;;;26.23;16.45;;;;;;;5.95;75.70;99573.81;5073766;28;20436;-59
2021/12/07 06:25:48;;;;;;;30.05;16.55;;;;;;;5.84;76.29;99586.19;5073669;28;20477;-60
2021/12/07 06:28:16;;;;;;;25.38;14.32;;;;;;;5.86;75.81;99581.16;5072631;28;20059;-60
2021/12/07 06:30:45;;;;;;;32.40;18.42;;;;;;;5.90;75.57;99591.31;5075270;28;20059;-60
2021/12/07 06:33:16;;;;;;;29.73;15.13;;;;;;;6.01;75.13;99589.19;5073637;28;20048;-60
2021/12/07 06:35:44;;;;;;;28.38;17.38;;;;;;;5.76;76.57;99592.41;5060426;28;20052;-60
2021/12/07 06:38:12;;;;;;;25.40;15.38;;;;;;;5.62;77.16;99609.75;5056298;28;20055;-58
2021/12/07 06:40:39;;;;;;;24.85;15.80;;;;;;;5.67;76.79;99608.88;5072140;28;20060;-60
2021/12/07 06:43:06;;;;;;;25.42;15.48;;;;;;;5.74;76.54;99601.00;5073187;28;20060;-60
2021/12/07 06:45:34;;;;;;;30.60;17.13;;;;;;;5.63;76.97;99605.88;5073643;28;20516;-60
2021/12/07 06:48:01;;;;;;;28.58;16.63;;;;;;;5.56;77.24;99610.97;5072518;28;20052;-60
2021/12/07 06:50:30;;;;;;;31.10;16.02;;;;;;;5.68;77.15;99607.72;5073854;28;20048;-60
2021/12/07 06:52:57;;;;;;;28.87;15.87;;;;;;;5.67;76.96;99606.91;5071339;28;20064;-61
2021/12/07 06:55:25;;;;;;;31.20;15.75;;;;;;;5.57;77.70;99607.09;5073313;28;20057;-60
2021/12/07 06:57:53;;;;;;;30.52;16.33;;;;;;;5.75;77.01;99591.56;5071457;28;20405;-59
2021/12/07 07:00:21;;;;;;;32.75;16.40;;;;;;;5.20;79.27;99603.25;5072618;28;20057;-46
2021/12/07 07:02:49;;;;;;;25.52;16.48;;;;;;;5.35;81.17;99618.75;5072219;28;20048;-48
2021/12/07 07:05:17;;;;;;;28.88;16.02;;;;;;;5.55;79.96;99614.84;5070424;28;20083;-46
2021/12/07 07:07:46;;;;;;;28.15;16.23;;;;;;;5.43;80.93;99622.78;5072970;28;20052;-49
2021/12/07 07:10:15;;;;;;;32.90;17.05;;;;;;;5.16;82.59;99629.00;5072025;28;20040;-46
2021/12/07 07:12:44;;;;;;;30.25;16.95;;;;;;;5.63;80.44;99639.03;5069203;28;20053;-65
2021/12/07 07:15:12;;;;;;;35.33;17.27;;;;;;;5.83;77.99;99640.59;5068782;28;20049;-65
2021/12/07 07:17:40;;;;;;;31.02;16.42;;;;;;;5.96;77.55;99636.25;5071388;28;20052;-65
2021/12/07 07:20:11;;;;;;;30.42;16.15;;;;;;;5.81;77.19;99650.34;5069679;28;20048;-65
2021/12/07 07:22:38;;;;;;;30.00;15.75;;;;;;;5.94;76.76;99638.47;5069369;28;20067;-65
2021/12/07 07:25:09;;;;;;;28.17;16.60;;;;;;;5.70;78.04;99636.69;5071823;28;20052;-65
2021/12/07 07:27:40;;;;;;;25.98;14.45;;;;;;;5.85;76.92;99643.06;5071855;28;20063;-65
2021/12/07 07:30:10;;;;;;;32.40;14.52;;;;;;;5.93;76.21;99653.44;5071224;28;20052;-65
2021/12/07 07:32:37;;;;;;;23.85;14.15;;;;;;;5.97;76.29;99653.69;5071808;28;20057;-65
2021/12/07 07:35:07;;;;;;;23.13;14.07;;;;;;;5.98;76.13;99664.41;5072307;28;20056;-65
2021/12/07 07:37:35;;;;;;;20.73;13.82;;;;;;;6.12;75.85;99658.13;5070120;28;20048;-65
2021/12/07 07:40:03;;;;;;;23.60;14.25;;;;;;;5.87;76.52;99668.47;5072494;28;20044;-65
2021/12/07 07:42:32;;;;;;;25.55;13.90;;;;;;;6.12;75.88;99660.88;5071994;28;20049;-65
2021/12/07 07:44:59;;;;;;;20.88;12.63;;;;;;;6.20;75.79;99662.94;5066939;28;20572;-65
2021/12/07 07:47:26;;;;;;;23.05;13.70;;;;;;;6.06;76.01;99679.50;5070362;28;20048;-65
2021/12/07 07:49:54;;;;;;;24.13;13.82;;;;;;;6.04;75.53;99660.44;5071900;28;20401;-65
2021/12/07 07:52:21;;;;;;;22.98;13.02;;;;;;;5.92;76.54;99667.56;5065579;28;20044;-65
2021/12/07 07:54:48;;;;;;;23.98;13.23;;;;;;;6.00;75.84;99648.34;5069177;28;20775;-65
2021/12/07 07:57:16;;;;;;;23.98;14.15;;;;;;;6.09;75.63;99652.06;5072869;28;20075;-65
2021/12/07 07:59:44;;;;;;;21.30;12.80;;;;;;;5.88;75.56;99656.31;5072398;28;20049;-65
2021/12/07 08:02:12;;;;;;;26.42;13.30;;;;;;;5.86;76.14;99662.13;5070476;28;20053;-65
2021/12/07 08:04:39;;;;;;;19.52;12.60;;;;;;;5.89;76.46;99663.47;5070035;28;20049;-65
2021/12/07 08:07:07;;;;;;;24.30;12.73;;;;;;;5.99;75.44;99655.03;5068116;28;20060;-65
2021/12/07 08:09:34;;;;;;;24.88;13.60;;;;;;;6.00;75.13;99659.41;5070943;28;20060;-65
2021/12/07 08:12:02;;;;;;;23.52;12.88;;;;;;;5.92;75.83;99679.41;5070895;28;20044;-66
2021/12/07 08:14:29;;;;;;;19.10;14.10;;;;;;;6.01;75.31;99685.94;5065646;28;20052;-65
2021/12/07 08:16:58;;;;;;;22.70;12.23;;;;;;;6.07;75.20;99687.50;5065848;28;20048;-65
2021/12/07 08:19:25;;;;;;;22.80;11.93;;;;;;;5.96;76.35;99686.00;5061365;28;20075;-66
2021/12/07 08:21:52;;;;;;;18.00;11.60;;;;;;;6.14;75.14;99680.75;5071214;28;20057;-65
2021/12/07 08:24:20;;;;;;;22.80;12.18;;;;;;;6.13;74.87;99679.09;5066231;28;20044;-65
2021/12/07 08:26:47;;;;;;;21.67;10.82;;;;;;;6.19;74.55;99691.72;5070848;28;20059;-66
2021/12/07 08:29:14;;;;;;;27.85;12.80;;;;;;;5.83;75.63;99689.53;5068549;28;20078;-66
2021/12/07 08:31:43;;;;;;;22.77;11.63;;;;;;;5.99;75.77;99679.09;5068394;28;20377;-66
2021/12/07 08:34:12;;;;;;;19.63;12.45;;;;;;;5.99;75.16;99679.91;5070022;28;20477;-66
2021/12/07 08:36:39;;;;;;;18.63;10.47;;;;;;;6.18;74.91;99670.72;5071360;28;20048;-66
2021/12/07 08:39:08;;;;;;;17.63;11.05;;;;;;;6.06;74.75;99669.25;5067907;28;20067;-64
2021/12/07 08:41:36;;;;;;;22.75;11.23;;;;;;;6.16;74.16;99678.50;5069338;28;20068;-66
2021/12/07 08:44:04;;;;;;;22.98;11.15;;;;;;;5.94;74.65;99701.25;5067809;28;20747;-66
2021/12/07 08:46:31;;;;;;;18.10;10.45;;;;;;;5.90;74.67;99678.94;5068298;28;20502;-66
2021/12/07 08:48:59;;;;;;;18.75;10.70;;;;;;;5.89;74.33;99685.56;5068832;28;20238;-66
2021/12/07 08:51:27;;;;;;;23.13;11.05;;;;;;;5.85;74.45;99665.19;5070331;28;20504;-65
2021/12/07 08:54:00;;;;;;;20.07;10.27;;;;;;;5.79;75.11;99675.50;5068489;28;20059;-66
2021/12/07 09:01:57;;;;;;;15.43;9.05;;;;;;;6.18;74.03;99666.00;5059336;28;20071;-66
2021/12/07 09:04:25;;;;;;;17.55;9.73;;;;;;;6.45;73.60;99665.22;5068077;28;20485;-66
2021/12/07 09:06:54;;;;;;;16.08;9.27;;;;;;;6.49;71.79;99669.00;5068175;28;20044;-66
2021/12/07 09:09:21;;;;;;;20.30;9.73;;;;;;;6.82;72.08;99677.19;5069941;28;20507;-64
2021/12/07 09:11:48;;;;;;;19.45;9.15;;;;;;;7.09;70.92;99679.09;5067636;28;20060;-65
2021/12/07 09:14:18;;;;;;;17.55;10.27;;;;;;;6.90;71.43;99676.44;5067520;28;20056;-65
2021/12/07 09:16:46;;;;;;;21.20;10.65;;;;;;;6.90;71.41;99687.53;5069495;28;20048;-65
2021/12/07 09:19:14;;;;;;;17.58;10.48;;;;;;;6.92;71.31;99690.00;5069555;28;20049;-65
2021/12/07 09:21:42;;;;;;;21.38;11.68;;;;;;;6.82;70.33;99693.78;5068211;28;20052;-61
2021/12/07 09:24:11;;;;;;;22.85;11.93;;;;;;;6.25;71.99;99693.25;5067691;28;20490;-62
2021/12/07 09:26:39;;;;;;;19.98;11.48;;;;;;;6.38;72.67;99691.63;5066235;28;20053;-66
2021/12/07 09:29:07;;;;;;;20.45;11.30;;;;;;;6.48;72.79;99702.50;5069079;28;20063;-67
2021/12/07 09:31:35;;;;;;;19.92;11.30;;;;;;;6.53;72.18;99704.34;5064908;28;20044;-66
2021/12/07 09:34:04;;;;;;;24.25;11.38;;;;;;;6.41;73.36;99705.69;5068087;28;20059;-66
2021/12/07 09:36:32;;;;;;;19.52;11.38;;;;;;;6.62;72.69;99705.28;5067928;28;20056;-66
2021/12/07 09:38:59;;;;;;;17.55;11.00;;;;;;;6.76;72.18;99708.88;5067804;28;20049;-67
2021/12/07 09:41:28;;;;;;;20.42;10.98;;;;;;;6.81;72.20;99711.53;5065520;28;20405;-67
2021/12/07 09:43:57;;;;;;;17.67;10.90;;;;;;;6.73;72.07;99715.03;5062891;28;20063;-67
2021/12/07 09:46:24;;;;;;;22.55;10.75;;;;;;;6.19;72.96;99728.47;5066506;28;20413;-67
2021/12/07 09:48:52;;;;;;;17.85;9.55;;;;;;;6.79;71.72;99733.16;5067006;28;20413;-67
2021/12/07 09:51:22;;;;;;;18.75;9.77;;;;;;;6.66;72.15;99731.22;5068960;28;20060;-67
2021/12/07 09:53:52;;;;;;;16.20;10.13;;;;;;;6.94;71.32;99728.44;5068513;28;20057;-67
2021/12/07 09:56:21;;;;;;;16.15;9.93;;;;;;;6.59;71.04;99723.31;5067614;28;20060;-68
2021/12/07 09:58:53;;;;;;;19.20;10.27;;;;;;;6.27;72.51;99729.72;5072205;28;20068;-68
2021/12/07 10:01:21;;;;;;;14.82;9.57;;;;;;;6.05;74.23;99730.41;5072892;28;20052;-68
2021/12/07 10:03:49;;;;;;;20.80;9.65;;;;;;;6.25;73.31;99732.78;5070503;28;20068;-68
2021/12/07 10:06:17;;;;;;;18.50;9.32;;;;;;;6.50;72.17;99725.16;5068410;28;20060;-67
2021/12/07 10:08:45;;;;;;;18.33;10.13;;;;;;;6.30;72.24;99734.66;5070246;28;20428;-67
2021/12/07 10:11:13;;;;;;;22.63;10.20;;;;;;;6.31;72.15;99736.28;5071153;28;20067;-67
2021/12/07 10:13:42;;;;;;;18.20;9.52;;;;;;;6.60;71.87;99732.44;5073170;28;20489;-67
2021/12/07 10:16:15;;;;;;;17.10;9.88;;;;;;;6.30;72.74;99734.66;5071919;28;20424;-67
2021/12/07 10:18:43;;;;;;;16.67;8.95;;;;;;;6.55;71.91;99730.59;5072921;28;20056;-67
2021/12/07 10:21:17;;;;;;;22.08;9.93;;;;;;;6.35;73.00;99719.91;5073131;28;20535;-68
2021/12/07 10:23:46;;;;;;;17.60;9.90;;;;;;;6.33;71.70;99733.22;5071122;28;20067;-67
2021/12/07 10:26:16;;;;;;;21.77;10.32;;;;;;;6.56;70.92;99726.69;5072432;28;20064;-68
2021/12/07 10:28:45;;;;;;;18.80;10.05;;;;;;;6.48;71.31;99719.09;5073249;28;20398;-67
2021/12/07 10:31:28;;;;;;;18.25;11.38;;;;;;;6.70;71.51;99727.53;5072776;28;20060;-66
2021/12/07 10:33:59;;;;;;;15.93;9.32;;;;;;;6.80;70.79;99726.50;5072805;28;20127;-66
2021/12/07 10:36:29;;;;;;;21.90;10.63;;;;;;;6.87;70.18;99724.16;5071345;28;20056;-66
2021/12/07 10:39:05;;;;;;;14.98;9.35;;;;;;;6.96;69.92;99712.34;5079529;28;20056;-66
2021/12/07 10:41:35;;;;;;;21.95;10.00;;;;;;;6.76;70.32;99708.88;5070345;28;20462;-67
2021/12/07 10:44:07;;;;;;;16.58;9.50;;;;;;;6.83;70.44;99714.81;5066862;28;20045;-67
2021/12/07 10:46:43;;;;;;;18.83;9.38;;;;;;;6.87;68.78;99704.78;5068625;28;20056;-67
2021/12/07 10:49:32;;;;;;;17.33;10.95;;;;;;;6.43;70.01;99703.44;5064803;28;20057;-67
2021/12/07 10:52:11;;;;;;;15.70;10.67;;;;;;;6.39;70.40;99694.09;5069943;28;20759;-67
2021/12/07 10:54:41;;;;;;;15.27;9.17;;;;;;;6.87;68.81;99698.41;5061772;28;21031;-66
2021/12/07 10:57:12;;;;;;;17.25;9.85;;;;;;;6.69;69.58;99703.75;5072480;28;20048;-67
2021/12/07 10:59:41;;;;;;;20.40;11.55;;;;;;;6.93;68.59;99691.66;5069031;28;20056;-67
2021/12/07 11:02:15;;;;;;;17.30;10.93;;;;;;;6.90;68.21;99695.84;5070920;28;20427;-68
2021/12/07 11:04:43;;;;;;;20.17;11.10;;;;;;;6.88;68.32;99680.66;5073558;28;20048;-68
2021/12/07 11:07:16;;;;;;;18.65;11.27;;;;;;;6.95;68.53;99691.31;5068673;28;20067;-67
2021/12/07 11:09:47;;;;;;;23.20;12.25;;;;;;;6.90;69.30;99683.94;5059426;28;20124;-67
2021/12/07 11:12:18;;;;;;;23.05;11.85;;;;;;;6.95;68.02;99686.63;5071799;28;20048;-67
2021/12/07 11:14:51;;;;;;;23.30;12.73;;;;;;;6.88;67.97;99681.47;5072895;28;20048;-68
2021/12/07 11:17:23;;;;;;;20.83;12.07;;;;;;;7.22;67.83;99682.97;5062600;28;20048;-67
2021/12/07 11:19:54;;;;;;;24.48;11.90;;;;;;;7.50;66.68;99680.13;5071946;28;20049;-67
2021/12/07 11:22:24;;;;;;;19.48;12.43;;;;;;;7.80;65.63;99670.22;5072081;28;20048;-67
2021/12/07 11:24:53;;;;;;;17.52;11.30;;;;;;;8.80;62.18;99662.56;5071779;28;20052;-67
2021/12/07 11:30:10;;;;;;;13.60;9.10;;;;;;;13.31;51.27;99648.13;5069862;28;20524;-68
2021/12/07 11:32:44;;;;;;;15.25;9.20;;;;;;;11.94;54.01;99656.78;5067463;28;20052;-52
2021/12/07 11:35:17;;;;;;;18.30;9.77;;;;;;;10.47;59.25;99654.66;5070418;28;20052;-53
2021/12/07 11:37:47;;;;;;;15.52;9.48;;;;;;;11.33;56.22;99648.91;5071498;28;20047;-52
2021/12/07 11:40:18;;;;;;;15.50;8.05;;;;;;;11.78;55.13;99649.03;5071283;28;20041;-53
2021/12/07 11:42:46;;;;;;;14.23;8.82;;;;;;;11.10;56.87;99646.44;5069913;28;20734;-55
2021/12/07 11:45:16;;;;;;;15.80;8.48;;;;;;;10.22;58.71;99655.53;5064012;28;20057;-50
2021/12/07 11:47:48;;;;;;;16.92;8.70;;;;;;;11.39;53.90;99639.19;5073615;28;20048;-54
2021/12/07 11:50:24;;;;;;;14.05;8.52;;;;;;;13.02;49.36;99636.06;5066112;28;20053;-54
2021/12/07 11:52:54;;;;;;;14.95;9.20;;;;;;;12.04;51.41;99645.19;5068303;28;20048;-52
2021/12/07 11:55:23;;;;;;;11.45;8.00;;;;;;;13.67;47.90;99627.66;5070726;28;20052;-55
2021/12/07 11:57:51;;;;;;;18.80;8.00;;;;;;;13.57;48.42;99625.34;5069725;28;20048;-54
2021/12/07 12:00:22;;;;;;;12.48;7.30;;;;;;;15.00;43.30;99611.47;5069343;28;20413;-54
2021/12/07 12:02:51;;;;;;;13.88;7.65;;;;;;;15.02;42.48;99607.13;5072862;28;20061;-68
2021/12/07 12:05:20;;;;;;;14.70;7.80;;;;;;;14.62;43.97;99607.38;5069930;28;20049;-67
2021/12/07 12:07:49;;;;;;;12.13;7.22;;;;;;;14.08;44.88;99611.56;5069500;28;20045;-67
2021/12/07 12:10:19;;;;;;;18.17;8.32;;;;;;;11.61;49.33;99615.69;5071303;28;20052;-67
2021/12/07 12:12:57;;;;;;;15.07;8.02;;;;;;;11.08;51.50;99620.88;5069026;28;20509;-67
2021/12/07 12:16:08;;;;;;;14.20;7.25;;;;;;;11.01;50.92;99633.75;5069448;28;20060;-67
2021/12/07 12:18:56;;;;;;;11.70;5.53;;;;;;;9.81;53.25;99624.38;5023266;28;20046;-67
2021/12/07 12:21:32;;;;;;;15.48;5.13;;;;;;;10.22;52.77;99636.84;5066415;28;20041;-67
2021/12/07 12:24:08;;;;;;;10.68;5.40;;;;;;;10.84;50.74;99621.53;5069076;28;20424;-67
2021/12/07 12:26:37;;;;;;;10.05;4.72;;;;;;;11.54;49.98;99618.22;5056124;28;20060;-67
2021/12/07 12:29:16;;;;;;;10.32;5.10;;;;;;;11.98;48.86;99615.84;5068731;28;20461;-67
2021/12/07 12:31:49;;;;;;;16.08;5.40;;;;;;;11.70;49.47;99618.41;5054810;28;20048;-68
2021/12/07 12:34:21;;;;;;;10.15;5.35;;;;;;;11.43;48.72;99630.97;5068807;28;20061;-67
2021/12/07 12:37:00;;;;;;;12.98;5.30;;;;;;;12.98;46.10;99607.19;5069792;28;20421;-68
2021/12/07 12:39:50;;;;;;;9.68;4.63;;;;;;;14.81;42.55;99598.22;5070177;28;20048;-68
2021/12/07 12:42:25;;;;;;;8.80;3.80;;;;;;;15.64;39.92;99592.38;5069177;28;20497;-68
2021/12/07 12:45:07;;;;;;;10.68;4.15;;;;;;;14.74;41.09;99598.03;5065128;28;20057;-68
2021/12/07 12:47:35;;;;;;;7.18;3.55;;;;;;;15.30;39.76;99592.09;5066119;28;20067;-68
2021/12/07 12:50:15;;;;;;;8.63;3.45;;;;;;;15.77;38.65;99593.91;5067900;28;20057;-68
2021/12/07 12:52:45;;;;;;;11.20;3.63;;;;;;;15.04;39.38;99601.16;5064089;28;20067;-68
2021/12/07 12:55:47;;;;;;;7.85;3.65;;;;;;;15.72;38.92;99585.75;5069512;28;20055;-68
2021/12/07 12:58:20;;;;;;;10.02;4.20;;;;;;;14.92;40.22;99593.66;5026059;28;20057;-68
2021/12/07 13:01:08;;;;;;;12.65;4.82;;;;;;;13.31;42.07;99604.22;5062249;28;20052;-68
2021/12/07 13:03:59;;;;;;;12.00;4.60;;;;;;;14.69;40.38;99568.28;5069873;28;20067;-68
2021/12/07 13:06:52;;;;;;;9.57;4.10;;;;;;;14.92;39.98;99579.63;5067872;28;20056;-67